createdAt,value
2017-07-23T00:00:20.089Z,0
2017-07-23T00:01:32.683Z,0
2017-07-23T00:02:45.331Z,0
2017-07-23T00:03:57.878Z,0
2017-07-23T00:05:10.652Z,0
2017-07-23T00:06:23.210Z,0
2017-07-23T00:07:35.511Z,0
2017-07-23T00:08:48.162Z,0
2017-07-23T00:10:00.778Z,0
2017-07-23T00:11:13.082Z,0
2017-07-23T00:12:25.658Z,0
2017-07-23T00:13:37.618Z,0
2017-07-23T00:14:49.869Z,0
2017-07-23T00:16:02.112Z,0
2017-07-23T00:17:14.730Z,0
2017-07-23T00:18:27.301Z,0
2017-07-23T00:19:39.896Z,0
2017-07-23T00:20:52.136Z,0
2017-07-23T00:22:04.439Z,0
2017-07-23T00:23:16.970Z,0
2017-07-23T00:24:28.934Z,0
2017-07-23T00:25:41.552Z,0
2017-07-23T00:26:54.162Z,0
2017-07-23T00:28:06.794Z,0
2017-07-23T00:29:19.401Z,0
2017-07-23T00:30:31.962Z,0
2017-07-23T00:31:44.573Z,0
2017-07-23T00:32:57.127Z,0
2017-07-23T00:34:09.747Z,0
2017-07-23T00:35:22.361Z,0
2017-07-23T00:36:34.613Z,0
2017-07-23T00:37:46.942Z,0
2017-07-23T00:38:59.559Z,0
2017-07-23T00:40:12.156Z,0
2017-07-23T00:41:24.800Z,0
2017-07-23T00:42:37.108Z,0
2017-07-23T00:43:49.166Z,0
2017-07-23T00:45:01.724Z,0
2017-07-23T00:46:14.049Z,0
2017-07-23T00:47:26.656Z,0
2017-07-23T00:48:39.223Z,0
2017-07-23T00:49:51.491Z,0
2017-07-23T00:51:03.741Z,0
2017-07-23T00:52:16.318Z,0
2017-07-23T00:53:28.961Z,0
2017-07-23T00:54:41.235Z,0
2017-07-23T00:55:53.874Z,0
2017-07-23T00:57:06.104Z,0
2017-07-23T00:58:18.718Z,0
2017-07-23T00:59:31.591Z,0
2017-07-23T01:00:44.169Z,0
2017-07-23T01:01:56.765Z,0
2017-07-23T01:03:09.079Z,0
2017-07-23T01:04:21.620Z,0
2017-07-23T01:05:34.185Z,0
2017-07-23T01:06:46.788Z,0
2017-07-23T01:07:59.462Z,0
2017-07-23T01:09:12.083Z,0
2017-07-23T01:10:24.687Z,0
2017-07-23T01:11:36.995Z,0
2017-07-23T01:12:49.600Z,0
2017-07-23T01:14:02.192Z,0
2017-07-23T01:15:14.435Z,0
2017-07-23T01:16:27.055Z,0
2017-07-23T01:17:39.337Z,0
2017-07-23T01:18:51.946Z,0
2017-07-23T01:20:04.210Z,0
2017-07-23T01:21:16.766Z,0
2017-07-23T01:22:29.046Z,0
2017-07-23T01:23:41.686Z,0
2017-07-23T01:24:54.337Z,0
2017-07-23T01:26:06.921Z,0
2017-07-23T01:27:19.510Z,0
2017-07-23T01:28:31.767Z,0
2017-07-23T01:29:44.318Z,0
2017-07-23T01:30:56.587Z,0
2017-07-23T01:32:09.176Z,0
2017-07-23T01:33:21.783Z,0
2017-07-23T01:34:34.395Z,0
2017-07-23T01:35:46.924Z,0
2017-07-23T01:36:59.490Z,0
2017-07-23T01:38:12.048Z,0
2017-07-23T01:39:24.652Z,0
2017-07-23T01:40:36.951Z,0
2017-07-23T01:41:49.195Z,0
2017-07-23T01:43:01.999Z,0
2017-07-23T01:44:14.636Z,0
2017-07-23T01:45:26.906Z,0
2017-07-23T01:46:39.554Z,0
2017-07-23T01:47:52.151Z,0
2017-07-23T01:49:04.745Z,0
2017-07-23T01:50:17.020Z,0
2017-07-23T01:51:29.353Z,0
2017-07-23T01:52:41.941Z,0
2017-07-23T01:53:54.204Z,0
2017-07-23T01:55:06.450Z,0
2017-07-23T01:56:18.998Z,0
2017-07-23T01:57:31.567Z,0
2017-07-23T01:58:44.168Z,0
2017-07-23T01:59:56.757Z,0
2017-07-23T02:01:09.415Z,0
2017-07-23T02:02:21.660Z,0
2017-07-23T02:03:34.238Z,0
2017-07-23T02:04:46.817Z,0
2017-07-23T02:05:59.099Z,0
2017-07-23T02:07:11.672Z,0
2017-07-23T02:08:23.996Z,0
2017-07-23T02:09:36.587Z,0
2017-07-23T02:10:49.203Z,0
2017-07-23T02:12:01.845Z,0
2017-07-23T02:13:14.462Z,0
2017-07-23T02:14:27.047Z,0
2017-07-23T02:15:39.663Z,0
2017-07-23T02:16:52.256Z,0
2017-07-23T02:18:04.822Z,0
2017-07-23T02:19:17.374Z,0
2017-07-23T02:20:30.001Z,0
2017-07-23T02:21:42.585Z,0
2017-07-23T02:22:55.155Z,0
2017-07-23T02:24:07.441Z,0
2017-07-23T02:25:19.706Z,0
2017-07-23T02:26:32.043Z,0
2017-07-23T02:27:44.595Z,0
2017-07-23T02:28:57.213Z,0
2017-07-23T02:30:09.474Z,0
2017-07-23T02:31:22.051Z,0
2017-07-23T02:32:34.690Z,0
2017-07-23T02:33:47.275Z,0
2017-07-23T02:34:59.882Z,0
2017-07-23T02:36:12.478Z,0
2017-07-23T02:37:25.359Z,0
2017-07-23T02:38:37.958Z,0
2017-07-23T02:39:50.580Z,0
2017-07-23T02:41:03.180Z,0
2017-07-23T02:42:15.870Z,0
2017-07-23T02:43:28.177Z,0
2017-07-23T02:44:40.704Z,0
2017-07-23T02:45:52.928Z,0
2017-07-23T02:47:05.470Z,0
2017-07-23T02:48:18.082Z,0
2017-07-23T02:49:30.646Z,0
2017-07-23T02:50:43.262Z,0
2017-07-23T02:51:55.581Z,0
2017-07-23T02:53:08.206Z,0
2017-07-23T02:54:20.527Z,0
2017-07-23T02:55:33.125Z,0
2017-07-23T02:56:45.690Z,0
2017-07-23T02:57:58.262Z,0
2017-07-23T02:59:10.850Z,0
2017-07-23T03:00:23.441Z,0
2017-07-23T03:01:36.106Z,0
2017-07-23T03:02:48.738Z,0
2017-07-23T03:04:01.342Z,0
2017-07-23T03:05:13.964Z,0
2017-07-23T03:06:26.483Z,0
2017-07-23T03:07:39.036Z,0
2017-07-23T03:08:51.585Z,5
2017-07-23T03:10:04.130Z,5
2017-07-23T03:11:16.723Z,5
2017-07-23T03:12:28.990Z,5
2017-07-23T03:13:41.607Z,5
2017-07-23T03:14:54.179Z,5
2017-07-23T03:16:06.750Z,10
2017-07-23T03:17:19.070Z,10
2017-07-23T03:18:31.298Z,10
2017-07-23T03:19:43.891Z,10
2017-07-23T03:20:56.467Z,10
2017-07-23T03:22:09.013Z,15
2017-07-23T03:23:21.292Z,15
2017-07-23T03:24:33.901Z,15
2017-07-23T03:25:46.491Z,15
2017-07-23T03:26:59.037Z,20
2017-07-23T03:28:11.640Z,20
2017-07-23T03:29:23.642Z,25
2017-07-23T03:30:36.209Z,25
2017-07-23T03:31:48.799Z,25
2017-07-23T03:33:01.415Z,30
2017-07-23T03:34:13.796Z,30
2017-07-23T03:35:26.359Z,30
2017-07-23T03:36:38.931Z,35
2017-07-23T03:37:51.493Z,45
2017-07-23T03:39:04.098Z,40
2017-07-23T03:40:16.668Z,45
2017-07-23T03:41:29.000Z,45
2017-07-23T03:42:41.615Z,45
2017-07-23T03:43:54.173Z,45
2017-07-23T03:45:06.729Z,45
2017-07-23T03:46:19.029Z,45
2017-07-23T03:47:31.636Z,45
2017-07-23T03:48:43.669Z,45
2017-07-23T03:49:56.221Z,45
2017-07-23T03:51:08.816Z,50
2017-07-23T03:52:21.355Z,50
2017-07-23T03:53:33.877Z,50
2017-07-23T03:54:46.454Z,50
2017-07-23T03:55:59.043Z,50
2017-07-23T03:57:11.645Z,55
2017-07-23T03:58:23.893Z,65
2017-07-23T03:59:36.508Z,65
2017-07-23T04:00:49.049Z,65
2017-07-23T04:02:01.618Z,70
2017-07-23T04:03:14.262Z,65
2017-07-23T04:04:26.214Z,70
2017-07-23T04:05:38.793Z,75
2017-07-23T04:06:51.408Z,75
2017-07-23T04:08:04.002Z,80
2017-07-23T04:09:16.594Z,85
2017-07-23T04:10:29.218Z,85
2017-07-23T04:11:41.512Z,90
2017-07-23T04:12:54.108Z,90
2017-07-23T04:14:06.653Z,90
2017-07-23T04:15:18.897Z,90
2017-07-23T04:16:31.544Z,95
2017-07-23T04:17:44.141Z,95
2017-07-23T04:18:56.766Z,85
2017-07-23T04:20:09.064Z,85
2017-07-23T04:21:21.621Z,80
2017-07-23T04:22:34.252Z,85
2017-07-23T04:23:46.582Z,85
2017-07-23T04:24:59.142Z,85
2017-07-23T04:26:11.640Z,85
2017-07-23T04:27:23.594Z,85
2017-07-23T04:28:35.936Z,85
2017-07-23T04:29:48.247Z,85
2017-07-23T04:31:00.789Z,80
2017-07-23T04:32:13.072Z,85
2017-07-23T04:33:25.674Z,80
2017-07-23T04:34:38.264Z,80
2017-07-23T04:35:50.878Z,85
2017-07-23T04:37:03.443Z,90
2017-07-23T04:38:15.979Z,95
2017-07-23T04:39:28.026Z,90
2017-07-23T04:40:40.639Z,105
2017-07-23T04:41:53.238Z,105
2017-07-23T04:43:05.823Z,105
2017-07-23T04:44:18.085Z,100
2017-07-23T04:45:30.632Z,105
2017-07-23T04:46:42.623Z,105
2017-07-23T04:47:55.164Z,115
2017-07-23T04:49:07.461Z,150
2017-07-23T04:50:19.782Z,150
2017-07-23T04:51:32.314Z,150
2017-07-23T04:52:44.627Z,150
2017-07-23T04:53:57.181Z,165
2017-07-23T04:55:09.516Z,155
2017-07-23T04:56:21.533Z,155
2017-07-23T04:57:34.184Z,165
2017-07-23T04:58:47.023Z,160
2017-07-23T04:59:59.582Z,170
2017-07-23T05:01:11.822Z,190
2017-07-23T05:02:24.501Z,205
2017-07-23T05:03:37.100Z,215
2017-07-23T05:04:49.463Z,235
2017-07-23T05:06:02.016Z,220
2017-07-23T05:07:14.629Z,225
2017-07-23T05:08:26.647Z,255
2017-07-23T05:09:39.189Z,255
2017-07-23T05:10:51.184Z,245
2017-07-23T05:12:03.738Z,260
2017-07-23T05:13:16.053Z,245
2017-07-23T05:14:28.623Z,245
2017-07-23T05:15:41.200Z,225
2017-07-23T05:16:53.834Z,230
2017-07-23T05:18:06.393Z,255
2017-07-23T05:19:18.668Z,270
2017-07-23T05:20:31.006Z,245
2017-07-23T05:21:43.235Z,240
2017-07-23T05:22:55.888Z,245
2017-07-23T05:24:08.221Z,295
2017-07-23T05:25:20.811Z,270
2017-07-23T05:26:33.384Z,270
2017-07-23T05:27:45.579Z,270
2017-07-23T05:28:58.114Z,295
2017-07-23T05:30:10.404Z,295
2017-07-23T05:31:23.294Z,300
2017-07-23T05:32:35.615Z,275
2017-07-23T05:33:47.940Z,370
2017-07-23T05:35:00.572Z,440
2017-07-23T05:36:13.157Z,445
2017-07-23T05:37:25.800Z,460
2017-07-23T05:38:38.417Z,420
2017-07-23T05:39:50.970Z,390
2017-07-23T05:41:02.966Z,400
2017-07-23T05:42:15.531Z,430
2017-07-23T05:43:28.104Z,495
2017-07-23T05:44:40.728Z,485
2017-07-23T05:45:53.284Z,560
2017-07-23T05:47:05.590Z,490
2017-07-23T05:48:18.137Z,510
2017-07-23T05:49:30.781Z,535
2017-07-23T05:50:43.332Z,555
2017-07-23T05:51:55.996Z,580
2017-07-23T05:53:08.610Z,625
2017-07-23T05:54:21.220Z,625
2017-07-23T05:55:33.811Z,675
2017-07-23T05:56:46.330Z,780
2017-07-23T05:57:58.954Z,790
2017-07-23T05:59:11.575Z,775
2017-07-23T06:00:23.885Z,610
2017-07-23T06:01:36.475Z,365
2017-07-23T06:02:48.491Z,105
2017-07-23T06:04:01.084Z,35
2017-07-23T06:05:13.678Z,80
2017-07-23T06:06:26.377Z,205
2017-07-23T06:07:39.024Z,245
2017-07-23T06:08:51.496Z,145
2017-07-23T06:10:03.738Z,90
2017-07-23T06:11:16.064Z,70
2017-07-23T06:12:28.681Z,80
2017-07-23T06:13:40.934Z,105
2017-07-23T06:14:52.671Z,125
2017-07-23T06:16:05.283Z,170
2017-07-23T06:17:17.262Z,105
2017-07-23T06:18:29.530Z,80
2017-07-23T06:19:42.103Z,115
2017-07-23T06:20:54.729Z,105
2017-07-23T06:22:07.006Z,105
2017-07-23T06:23:18.991Z,140
2017-07-23T06:24:31.538Z,130
2017-07-23T06:25:43.836Z,105
2017-07-23T06:26:56.459Z,95
2017-07-23T06:28:09.104Z,80
2017-07-23T06:29:21.322Z,60
2017-07-23T06:30:33.916Z,45
2017-07-23T06:31:46.138Z,30
2017-07-23T06:32:58.420Z,25
2017-07-23T06:34:10.968Z,25
2017-07-23T06:35:23.554Z,30
2017-07-23T06:36:36.188Z,30
2017-07-23T06:37:48.753Z,30
2017-07-23T06:39:01.368Z,35
2017-07-23T06:40:13.641Z,35
2017-07-23T06:41:26.223Z,30
2017-07-23T06:42:38.856Z,30
2017-07-23T06:43:51.459Z,30
2017-07-23T06:45:03.749Z,30
2017-07-23T06:46:16.406Z,30
2017-07-23T06:47:29.287Z,35
2017-07-23T06:48:41.880Z,35
2017-07-23T06:49:54.454Z,40
2017-07-23T06:51:06.446Z,45
2017-07-23T06:52:19.011Z,50
2017-07-23T06:53:31.615Z,50
2017-07-23T06:54:43.938Z,55
2017-07-23T06:55:56.556Z,55
2017-07-23T06:57:09.133Z,50
2017-07-23T06:58:21.949Z,50
2017-07-23T06:59:34.592Z,50
2017-07-23T07:00:46.919Z,50
2017-07-23T07:01:59.558Z,55
2017-07-23T07:03:11.943Z,55
2017-07-23T07:04:23.940Z,60
2017-07-23T07:05:36.265Z,60
2017-07-23T07:06:48.877Z,60
2017-07-23T07:08:01.416Z,65
2017-07-23T07:09:13.393Z,70
2017-07-23T07:10:26.016Z,85
2017-07-23T07:11:38.012Z,105
2017-07-23T07:12:49.688Z,125
2017-07-23T07:14:02.276Z,140
2017-07-23T07:15:14.877Z,140
2017-07-23T07:16:27.205Z,150
2017-07-23T07:17:39.836Z,165
2017-07-23T07:18:52.466Z,175
2017-07-23T07:20:04.711Z,165
2017-07-23T07:21:17.298Z,150
2017-07-23T07:22:29.921Z,145
2017-07-23T07:23:42.587Z,155
2017-07-23T07:24:54.883Z,170
2017-07-23T07:26:07.504Z,175
2017-07-23T07:27:19.783Z,180
2017-07-23T07:28:32.378Z,180
2017-07-23T07:29:45.042Z,185
2017-07-23T07:30:57.313Z,180
2017-07-23T07:32:09.564Z,180
2017-07-23T07:33:21.308Z,175
2017-07-23T07:34:33.850Z,180
2017-07-23T07:35:46.421Z,180
2017-07-23T07:36:58.677Z,195
2017-07-23T07:38:10.963Z,210
2017-07-23T07:39:23.520Z,215
2017-07-23T07:40:36.106Z,230
2017-07-23T07:41:49.001Z,250
2017-07-23T07:43:01.590Z,255
2017-07-23T07:44:14.196Z,275
2017-07-23T07:45:26.450Z,300
2017-07-23T07:46:38.785Z,320
2017-07-23T07:47:50.705Z,330
2017-07-23T07:49:03.300Z,345
2017-07-23T07:50:15.272Z,350
2017-07-23T07:51:27.892Z,350
2017-07-23T07:52:40.465Z,350
2017-07-23T07:53:52.483Z,340
2017-07-23T07:55:05.080Z,330
2017-07-23T07:56:17.655Z,335
2017-07-23T07:57:30.534Z,335
2017-07-23T07:58:43.152Z,335
2017-07-23T07:59:55.726Z,325
2017-07-23T08:01:08.341Z,315
2017-07-23T08:02:20.381Z,320
2017-07-23T08:03:33.006Z,330
2017-07-23T08:04:45.248Z,345
2017-07-23T08:05:57.820Z,370
2017-07-23T08:07:10.169Z,395
2017-07-23T08:08:22.753Z,435
2017-07-23T08:09:35.007Z,475
2017-07-23T08:10:47.553Z,505
2017-07-23T08:12:00.155Z,535
2017-07-23T08:13:12.695Z,555
2017-07-23T08:14:25.268Z,565
2017-07-23T08:15:37.947Z,585
2017-07-23T08:16:50.573Z,600
2017-07-23T08:18:02.878Z,615
2017-07-23T08:19:15.166Z,630
2017-07-23T08:20:27.794Z,635
2017-07-23T08:21:40.121Z,655
2017-07-23T08:22:52.088Z,685
2017-07-23T08:24:04.710Z,760
2017-07-23T08:25:17.346Z,795
2017-07-23T08:26:29.352Z,850
2017-07-23T08:27:41.975Z,890
2017-07-23T08:28:54.519Z,915
2017-07-23T08:30:06.761Z,965
2017-07-23T08:31:19.049Z,850
2017-07-23T08:32:31.334Z,740
2017-07-23T08:33:44.000Z,620
2017-07-23T08:34:56.597Z,570
2017-07-23T08:36:09.209Z,515
2017-07-23T08:37:21.523Z,505
2017-07-23T08:38:34.119Z,530
2017-07-23T08:39:46.704Z,515
2017-07-23T08:40:59.274Z,605
2017-07-23T08:42:11.600Z,730
2017-07-23T08:43:23.567Z,795
2017-07-23T08:44:36.205Z,770
2017-07-23T08:45:48.772Z,700
2017-07-23T08:47:01.406Z,635
2017-07-23T08:48:14.001Z,825
2017-07-23T08:49:26.601Z,620
2017-07-23T08:50:39.191Z,860
2017-07-23T08:51:51.857Z,795
2017-07-23T08:53:03.545Z,675
2017-07-23T08:54:15.616Z,910
2017-07-23T08:55:27.918Z,900
2017-07-23T08:56:40.503Z,1065
2017-07-23T08:57:53.020Z,1155
2017-07-23T08:59:05.646Z,785
2017-07-23T09:00:17.639Z,790
2017-07-23T09:01:30.283Z,1120
2017-07-23T09:02:42.906Z,795
2017-07-23T09:03:55.496Z,825
2017-07-23T09:05:07.718Z,940
2017-07-23T09:06:20.375Z,645
2017-07-23T09:07:33.061Z,630
2017-07-23T09:08:45.022Z,910
2017-07-23T09:09:57.604Z,1135
2017-07-23T09:11:10.129Z,900
2017-07-23T09:12:22.405Z,655
2017-07-23T09:13:35.032Z,710
2017-07-23T09:14:47.612Z,2230
2017-07-23T09:16:00.259Z,1070
2017-07-23T09:17:12.585Z,925
2017-07-23T09:18:24.890Z,695
2017-07-23T09:19:37.503Z,630
2017-07-23T09:20:50.130Z,1280
2017-07-23T09:22:02.712Z,1100
2017-07-23T09:23:15.299Z,700
2017-07-23T09:24:27.882Z,675
2017-07-23T09:25:39.823Z,850
2017-07-23T09:26:52.408Z,905
2017-07-23T09:28:05.047Z,1085
2017-07-23T09:29:17.310Z,1305
2017-07-23T09:30:29.308Z,980
2017-07-23T09:31:41.953Z,1075
2017-07-23T09:32:54.207Z,1340
2017-07-23T09:34:06.877Z,1080
2017-07-23T09:35:19.227Z,625
2017-07-23T09:36:31.604Z,425
2017-07-23T09:37:44.199Z,400
2017-07-23T09:38:56.497Z,435
2017-07-23T09:40:09.100Z,395
2017-07-23T09:41:21.438Z,335
2017-07-23T09:42:33.967Z,380
2017-07-23T09:43:46.268Z,435
2017-07-23T09:44:58.861Z,430
2017-07-23T09:46:11.190Z,445
2017-07-23T09:47:23.503Z,575
2017-07-23T09:48:36.048Z,535
2017-07-23T09:49:48.378Z,515
2017-07-23T09:51:00.989Z,580
2017-07-23T09:52:13.283Z,725
2017-07-23T09:53:25.841Z,805
2017-07-23T09:54:38.125Z,880
2017-07-23T09:55:50.398Z,865
2017-07-23T09:57:02.405Z,795
2017-07-23T09:58:14.699Z,760
2017-07-23T09:59:27.012Z,775
2017-07-23T10:00:39.333Z,910
2017-07-23T10:01:51.944Z,995
2017-07-23T10:03:04.492Z,1040
2017-07-23T10:04:17.081Z,980
2017-07-23T10:05:29.366Z,1115
2017-07-23T10:06:41.988Z,845
2017-07-23T10:07:54.557Z,900
2017-07-23T10:09:06.828Z,1015
2017-07-23T10:10:19.100Z,1175
2017-07-23T10:11:31.423Z,825
2017-07-23T10:12:43.688Z,955
2017-07-23T10:13:55.936Z,915
2017-07-23T10:15:08.506Z,890
2017-07-23T10:16:21.133Z,845
2017-07-23T10:17:33.849Z,835
2017-07-23T10:18:46.396Z,815
2017-07-23T10:19:58.982Z,805
2017-07-23T10:21:11.268Z,745
2017-07-23T10:22:23.858Z,590
2017-07-23T10:23:36.152Z,425
2017-07-23T10:24:48.757Z,385
2017-07-23T10:26:01.423Z,510
2017-07-23T10:27:13.472Z,415
2017-07-23T10:28:26.309Z,280
2017-07-23T10:29:38.568Z,570
2017-07-23T10:30:50.836Z,875
2017-07-23T10:32:03.154Z,1000
2017-07-23T10:33:15.124Z,920
2017-07-23T10:34:27.472Z,760
2017-07-23T10:35:40.053Z,575
2017-07-23T10:36:52.632Z,600
2017-07-23T10:38:05.264Z,800
2017-07-23T10:39:17.227Z,865
2017-07-23T10:40:29.848Z,1100
2017-07-23T10:41:42.415Z,1250
2017-07-23T10:42:54.968Z,875
2017-07-23T10:44:07.536Z,1205
2017-07-23T10:45:20.109Z,1780
2017-07-23T10:46:32.792Z,2495
2017-07-23T10:47:45.370Z,2005
2017-07-23T10:48:57.661Z,2515
2017-07-23T10:50:09.963Z,2390
2017-07-23T10:51:22.564Z,2815
2017-07-23T10:52:34.615Z,1795
2017-07-23T10:53:47.281Z,1935
2017-07-23T10:54:59.832Z,2645
2017-07-23T10:56:11.831Z,2170
2017-07-23T10:57:24.687Z,2650
2017-07-23T10:58:37.236Z,1005
2017-07-23T10:59:49.180Z,2425
2017-07-23T11:01:01.787Z,2680
2017-07-23T11:02:14.128Z,2320
2017-07-23T11:03:26.404Z,1720
2017-07-23T11:04:38.989Z,1085
2017-07-23T11:05:51.586Z,1155
2017-07-23T11:07:04.134Z,965
2017-07-23T11:08:16.427Z,975
2017-07-23T11:09:28.746Z,715
2017-07-23T11:10:41.346Z,720
2017-07-23T11:11:53.338Z,1025
2017-07-23T11:13:05.938Z,1180
2017-07-23T11:14:18.288Z,1110
2017-07-23T11:15:30.627Z,935
2017-07-23T11:16:43.254Z,1215
2017-07-23T11:17:55.896Z,1165
2017-07-23T11:19:08.424Z,1100
2017-07-23T11:20:20.184Z,975
2017-07-23T11:21:32.512Z,910
2017-07-23T11:22:44.788Z,950
2017-07-23T11:23:57.109Z,905
2017-07-23T11:25:09.646Z,875
2017-07-23T11:26:22.190Z,865
2017-07-23T11:27:34.839Z,820
2017-07-23T11:28:47.393Z,820
2017-07-23T11:29:59.708Z,860
2017-07-23T11:31:12.302Z,885
2017-07-23T11:32:24.848Z,880
2017-07-23T11:33:37.119Z,865
2017-07-23T11:34:49.726Z,835
2017-07-23T11:36:02.315Z,755
2017-07-23T11:37:15.020Z,715
2017-07-23T11:38:26.680Z,730
2017-07-23T11:39:38.987Z,815
2017-07-23T11:40:51.252Z,925
2017-07-23T11:42:03.863Z,995
2017-07-23T11:43:16.474Z,1020
2017-07-23T11:44:28.803Z,1030
2017-07-23T11:45:41.412Z,1045
2017-07-23T11:46:53.989Z,1085
2017-07-23T11:48:06.246Z,1030
2017-07-23T11:49:18.873Z,1115
2017-07-23T11:50:31.500Z,1155
2017-07-23T11:51:43.786Z,1065
2017-07-23T11:52:56.403Z,845
2017-07-23T11:54:08.996Z,735
2017-07-23T11:55:20.696Z,885
2017-07-23T11:56:33.306Z,1275
2017-07-23T11:57:45.547Z,1700
2017-07-23T11:58:58.154Z,1085
2017-07-23T12:00:10.431Z,1080
2017-07-23T12:01:22.424Z,955
2017-07-23T12:02:34.718Z,795
2017-07-23T12:03:46.749Z,665
2017-07-23T12:04:59.326Z,565
2017-07-23T12:06:11.936Z,635
2017-07-23T12:07:24.538Z,770
2017-07-23T12:08:36.889Z,2870
2017-07-23T12:09:49.431Z,2930
2017-07-23T12:11:01.765Z,3055
2017-07-23T12:12:14.070Z,2810
2017-07-23T12:13:26.344Z,3325
2017-07-23T12:14:38.701Z,2480
2017-07-23T12:15:51.054Z,2515
2017-07-23T12:17:03.293Z,3455
2017-07-23T12:18:15.345Z,3515
2017-07-23T12:19:27.353Z,2155
2017-07-23T12:20:39.966Z,1570
2017-07-23T12:21:52.530Z,1395
2017-07-23T12:23:04.822Z,1775
2017-07-23T12:24:17.497Z,2495
2017-07-23T12:25:30.078Z,3335
2017-07-23T12:26:42.389Z,3575
2017-07-23T12:27:54.972Z,3280
2017-07-23T12:29:07.603Z,5125
2017-07-23T12:30:20.200Z,5735
2017-07-23T12:31:32.511Z,5310
2017-07-23T12:32:44.815Z,3815
2017-07-23T12:33:57.096Z,3850
2017-07-23T12:35:09.688Z,2880
2017-07-23T12:36:22.010Z,1285
2017-07-23T12:37:34.656Z,3335
2017-07-23T12:38:47.031Z,2945
2017-07-23T12:39:59.657Z,3060
2017-07-23T12:41:11.953Z,3170
2017-07-23T12:42:24.608Z,3475
2017-07-23T12:43:37.155Z,3565
2017-07-23T12:44:49.700Z,3340
2017-07-23T12:46:02.321Z,3765
2017-07-23T12:47:14.647Z,3610
2017-07-23T12:48:27.248Z,2960
2017-07-23T12:49:39.931Z,3170
2017-07-23T12:50:52.296Z,3140
2017-07-23T12:52:04.899Z,3040
2017-07-23T12:53:17.169Z,2620
2017-07-23T12:54:29.444Z,2165
2017-07-23T12:55:41.988Z,3300
2017-07-23T12:56:54.557Z,3290
2017-07-23T12:58:06.555Z,2860
2017-07-23T12:59:18.842Z,2935
2017-07-23T13:00:31.173Z,3095
2017-07-23T13:01:43.773Z,2795
2017-07-23T13:02:55.764Z,3825
2017-07-23T13:04:07.752Z,3600
2017-07-23T13:05:20.018Z,2700
2017-07-23T13:06:32.615Z,3455
2017-07-23T13:07:45.227Z,3690
2017-07-23T13:08:57.854Z,3585
2017-07-23T13:10:10.214Z,3615
2017-07-23T13:11:22.496Z,3600
2017-07-23T13:12:35.131Z,3400
2017-07-23T13:13:47.484Z,4705
2017-07-23T13:14:59.789Z,4740
2017-07-23T13:16:12.100Z,5710
2017-07-23T13:17:23.791Z,5295
2017-07-23T13:18:36.137Z,5480
2017-07-23T13:19:48.161Z,4870
2017-07-23T13:21:00.818Z,4550
2017-07-23T13:22:12.844Z,4080
2017-07-23T13:23:25.178Z,4035
2017-07-23T13:24:37.793Z,1545
2017-07-23T13:25:50.395Z,3865
2017-07-23T13:27:02.385Z,3800
2017-07-23T13:28:15.031Z,4305
2017-07-23T13:29:27.677Z,4585
2017-07-23T13:30:39.959Z,1455
2017-07-23T13:31:52.622Z,4970
2017-07-23T13:33:05.239Z,4375
2017-07-23T13:34:17.864Z,4035
2017-07-23T13:35:30.503Z,2865
2017-07-23T13:36:43.152Z,3595
2017-07-23T13:37:55.175Z,3315
2017-07-23T13:39:07.867Z,3340
2017-07-23T13:40:20.142Z,565
2017-07-23T13:41:32.757Z,430
2017-07-23T13:42:45.029Z,345
2017-07-23T13:43:57.661Z,315
2017-07-23T13:45:10.607Z,320
2017-07-23T13:46:23.217Z,295
2017-07-23T13:47:35.194Z,255
2017-07-23T13:48:47.215Z,175
2017-07-23T13:49:59.553Z,120
2017-07-23T13:51:12.151Z,110
2017-07-23T13:52:24.745Z,125
2017-07-23T13:53:37.301Z,185
2017-07-23T13:54:49.570Z,295
2017-07-23T13:56:02.175Z,425
2017-07-23T13:57:14.466Z,505
2017-07-23T13:58:27.081Z,665
2017-07-23T13:59:39.735Z,2335
2017-07-23T14:00:52.017Z,3065
2017-07-23T14:02:04.538Z,3610
2017-07-23T14:03:17.116Z,3445
2017-07-23T14:04:29.755Z,3255
2017-07-23T14:05:42.351Z,3575
2017-07-23T14:06:54.746Z,3595
2017-07-23T14:08:07.019Z,3520
2017-07-23T14:09:19.294Z,1575
2017-07-23T14:10:31.038Z,985
2017-07-23T14:11:43.342Z,675
2017-07-23T14:12:55.956Z,690
2017-07-23T14:14:08.172Z,1415
2017-07-23T14:15:20.448Z,865
2017-07-23T14:16:33.056Z,650
2017-07-23T14:17:45.642Z,2305
2017-07-23T14:18:58.272Z,2460
2017-07-23T14:20:10.278Z,2360
2017-07-23T14:21:22.558Z,3415
2017-07-23T14:22:35.172Z,1155
2017-07-23T14:23:47.464Z,1050
2017-07-23T14:25:00.036Z,2500
2017-07-23T14:26:12.610Z,3310
2017-07-23T14:27:25.227Z,3500
2017-07-23T14:28:37.861Z,3215
2017-07-23T14:29:50.476Z,935
2017-07-23T14:31:03.064Z,855
2017-07-23T14:32:15.321Z,955
2017-07-23T14:33:27.681Z,1450
2017-07-23T14:34:40.544Z,1070
2017-07-23T14:35:52.799Z,865
2017-07-23T14:37:05.447Z,595
2017-07-23T14:38:18.041Z,615
2017-07-23T14:39:30.624Z,950
2017-07-23T14:40:43.261Z,830
2017-07-23T14:41:55.889Z,775
2017-07-23T14:43:08.475Z,710
2017-07-23T14:44:20.781Z,605
2017-07-23T14:45:33.090Z,590
2017-07-23T14:46:45.386Z,455
2017-07-23T14:47:57.965Z,420
2017-07-23T14:49:10.657Z,400
2017-07-23T14:50:23.292Z,365
2017-07-23T14:51:35.195Z,335
2017-07-23T14:52:47.777Z,300
2017-07-23T14:54:00.042Z,305
2017-07-23T14:55:12.671Z,340
2017-07-23T14:56:24.729Z,515
2017-07-23T14:57:37.062Z,625
2017-07-23T14:58:49.321Z,750
2017-07-23T15:00:01.297Z,775
2017-07-23T15:01:13.893Z,770
2017-07-23T15:02:26.434Z,730
2017-07-23T15:03:39.009Z,695
2017-07-23T15:04:51.024Z,765
2017-07-23T15:06:03.347Z,790
2017-07-23T15:07:15.618Z,690
2017-07-23T15:08:28.266Z,750
2017-07-23T15:09:40.810Z,695
2017-07-23T15:10:53.432Z,655
2017-07-23T15:12:05.375Z,600
2017-07-23T15:13:17.628Z,615
2017-07-23T15:14:30.243Z,630
2017-07-23T15:15:42.526Z,710
2017-07-23T15:16:54.840Z,835
2017-07-23T15:18:06.781Z,980
2017-07-23T15:19:19.105Z,550
2017-07-23T15:20:31.783Z,950
2017-07-23T15:21:43.779Z,530
2017-07-23T15:22:56.349Z,515
2017-07-23T15:24:08.947Z,485
2017-07-23T15:25:20.954Z,445
2017-07-23T15:26:32.964Z,415
2017-07-23T15:27:44.698Z,395
2017-07-23T15:28:57.068Z,690
2017-07-23T15:30:09.357Z,460
2017-07-23T15:31:21.666Z,300
2017-07-23T15:32:33.967Z,285
2017-07-23T15:33:46.611Z,1145
2017-07-23T15:34:59.227Z,1225
2017-07-23T15:36:11.519Z,1360
2017-07-23T15:37:23.517Z,875
2017-07-23T15:38:35.223Z,280
2017-07-23T15:39:48.083Z,295
2017-07-23T15:41:00.389Z,320
2017-07-23T15:42:12.727Z,270
2017-07-23T15:43:25.076Z,290
2017-07-23T15:44:37.666Z,355
2017-07-23T15:45:49.336Z,690
2017-07-23T15:47:01.961Z,575
2017-07-23T15:48:14.570Z,495
2017-07-23T15:49:26.216Z,1140
2017-07-23T15:50:38.499Z,490
2017-07-23T15:51:50.825Z,285
2017-07-23T15:53:03.397Z,265
2017-07-23T15:54:15.708Z,260
2017-07-23T15:55:28.291Z,245
2017-07-23T15:56:40.933Z,235
2017-07-23T15:57:53.219Z,230
2017-07-23T15:59:05.192Z,230
2017-07-23T16:00:17.495Z,230
2017-07-23T16:01:29.783Z,225
2017-07-23T16:02:42.355Z,200
2017-07-23T16:03:54.613Z,185
2017-07-23T16:05:06.884Z,175
2017-07-23T16:06:19.543Z,175
2017-07-23T16:07:32.070Z,175
2017-07-23T16:08:44.390Z,190
2017-07-23T16:09:56.679Z,195
2017-07-23T16:11:09.227Z,185
2017-07-23T16:12:21.553Z,205
2017-07-23T16:13:33.629Z,235
2017-07-23T16:14:46.220Z,255
2017-07-23T16:15:58.210Z,270
2017-07-23T16:17:10.756Z,285
2017-07-23T16:18:23.356Z,280
2017-07-23T16:19:35.350Z,240
2017-07-23T16:20:47.624Z,190
2017-07-23T16:21:59.963Z,185
2017-07-23T16:23:11.969Z,185
2017-07-23T16:24:24.309Z,200
2017-07-23T16:25:36.958Z,205
2017-07-23T16:26:49.574Z,205
2017-07-23T16:28:01.901Z,210
2017-07-23T16:29:14.289Z,200
2017-07-23T16:30:26.671Z,185
2017-07-23T16:31:38.660Z,180
2017-07-23T16:32:50.945Z,185
2017-07-23T16:34:03.559Z,185
2017-07-23T16:35:15.852Z,180
2017-07-23T16:36:28.466Z,170
2017-07-23T16:37:40.994Z,160
2017-07-23T16:38:53.656Z,160
2017-07-23T16:40:06.268Z,170
2017-07-23T16:41:18.306Z,170
2017-07-23T16:42:30.573Z,170
2017-07-23T16:43:42.833Z,165
2017-07-23T16:44:55.419Z,160
2017-07-23T16:46:07.951Z,150
2017-07-23T16:47:20.504Z,145
2017-07-23T16:48:32.732Z,145